Terminal Aerodrome Forecast
Issued by NWS

Home | Current Version | Previous Version | Text Only | Print | Product List | Glossary On
Versions: 1 2 3 4 5 6 7 8 9 10 11 12 13 14 15 16 17 18 19 20 21 22 23 24
000
FTUS43 KLSX 281730
TAFCPS
TAF
KCPS 281730Z 2818/2918 07005KT P6SM OVC015
     FM282000 01005KT P6SM OVC020
     FM290100 04005KT P6SM BKN040
     FM290800 05007KT P6SM BKN025
     FM291200 07008KT P6SM -SHRA OVC010=

USA.gov is the U.S. government's official web portal to all federal, state and local government web resources and services.